Terminal Aerodrome Forecast
Issued by NWS Chicago, IL

Home | Current Version | Previous Version | Graphics & Text | Print | Product List | Glossary Off
Versions: 1 2 3 4 5 6 7 8 9 10 11 12 13 14 15 16 17 18 19 20 21 22 23 24 25 26 27 28 29 30 31

596
FTUS43 KLOT 202115 AAA
TAFRFD
TAF AMD
KRFD 202115Z 2021/2118 31011G19KT 6SM -RA BR SCT008 OVC040
      TEMPO 2021/2101 4SM -RA BKN008
     FM210100 31012G17KT 6SM BR VCSH OVC008
      TEMPO 2101/2104 4SM -FZRAPL
     FM210400 32014G20KT P6SM SCT010 BKN080
     FM210900 34010KT P6SM BKN250=

USA.gov is the U.S. government's official web portal to all federal, state and local government web resources and services.